sensor_id;sensor_type;location;lat;lon;timestamp;noise_LAeq;noise_LA_min;noise_LA_max;noise_LA01;noise_LA95
49568;Laerm;35474;51.032;6.998;2023-07-31T00:00:34;57.82;42.22;78.61;;
49568;Laerm;35474;51.032;6.998;2023-07-31T00:03:01;70.33;42.47;92.71;;
49568;Laerm;35474;51.032;6.998;2023-07-31T00:05:28;63.84;42.09;89.51;;
49568;Laerm;35474;51.032;6.998;2023-07-31T00:07:54;57.69;41.82;82.03;;
49568;Laerm;35474;51.032;6.998;2023-07-31T00:10:21;65.66;42.65;87.56;;
49568;Laerm;35474;51.032;6.998;2023-07-31T00:12:48;70.38;42.82;91.98;;
49568;Laerm;35474;51.032;6.998;2023-07-31T00:15:15;68.72;43.29;88.03;;
49568;Laerm;35474;51.032;6.998;2023-07-31T00:17:41;71.70;43.63;92.44;;
49568;Laerm;35474;51.032;6.998;2023-07-31T00:20:09;75.11;44.07;95.11;;
49568;Laerm;35474;51.032;6.998;2023-07-31T00:22:36;76.26;42.93;97.81;;
49568;Laerm;35474;51.032;6.998;2023-07-31T00:25:03;60.28;42.09;84.08;;
49568;Laerm;35474;51.032;6.998;2023-07-31T00:27:30;59.28;42.47;85.30;;
49568;Laerm;35474;51.032;6.998;2023-07-31T00:29:57;59.17;41.22;83.23;;
49568;Laerm;35474;51.032;6.998;2023-07-31T00:32:23;66.29;42.22;89.37;;
49568;Laerm;35474;51.032;6.998;2023-07-31T00:34:50;58.15;41.96;80.36;;
49568;Laerm;35474;51.032;6.998;2023-07-31T00:37:17;71.21;43.19;95.47;;
49568;Laerm;35474;51.032;6.998;2023-07-31T00:39:43;72.60;42.65;94.77;;
49568;Laerm;35474;51.032;6.998;2023-07-31T00:42:10;68.51;42.16;93.28;;
49568;Laerm;35474;51.032;6.998;2023-07-31T00:44:37;68.68;41.46;91.96;;
49568;Laerm;35474;51.032;6.998;2023-07-31T00:47:03;71.51;42.71;93.78;;
49568;Laerm;35474;51.032;6.998;2023-07-31T00:49:30;75.85;41.89;99.41;;
49568;Laerm;35474;51.032;6.998;2023-07-31T00:51:57;63.12;41.53;86.26;;
49568;Laerm;35474;51.032;6.998;2023-07-31T00:54:24;72.47;43.54;96.51;;
49568;Laerm;35474;51.032;6.998;2023-07-31T00:56:52;78.90;41.75;99.25;;
49568;Laerm;35474;51.032;6.998;2023-07-31T00:59:19;60.77;42.53;87.33;;
49568;Laerm;35474;51.032;6.998;2023-07-31T01:01:46;65.12;42.03;88.97;;
49568;Laerm;35474;51.032;6.998;2023-07-31T01:04:13;66.13;42.65;88.68;;
49568;Laerm;35474;51.032;6.998;2023-07-31T01:07:07;68.49;42.22;93.70;;
49568;Laerm;35474;51.032;6.998;2023-07-31T01:12:27;71.19;42.98;91.82;;
49568;Laerm;35474;51.032;6.998;2023-07-31T01:17:27;67.88;42.22;88.97;;
49568;Laerm;35474;51.032;6.998;2023-07-31T01:20:02;60.44;41.06;81.73;;
49568;Laerm;35474;51.032;6.998;2023-07-31T01:22:49;73.05;41.61;97.15;;
49568;Laerm;35474;51.032;6.998;2023-07-31T01:27:59;74.67;43.04;95.60;;
49568;Laerm;35474;51.032;6.998;2023-07-31T01:30:32;73.99;43.29;94.81;;
49568;Laerm;35474;51.032;6.998;2023-07-31T01:33:03;77.32;43.54;96.84;;
49568;Laerm;35474;51.032;6.998;2023-07-31T01:35:34;58.60;41.96;79.01;;
49568;Laerm;35474;51.032;6.998;2023-07-31T01:38:02;71.76;43.19;92.57;;
49568;Laerm;35474;51.032;6.998;2023-07-31T01:40:28;73.39;43.04;96.38;;
49568;Laerm;35474;51.032;6.998;2023-07-31T01:42:55;76.22;42.71;97.69;;
49568;Laerm;35474;51.032;6.998;2023-07-31T01:45:22;67.75;42.98;93.84;;
49568;Laerm;35474;51.032;6.998;2023-07-31T01:47:48;67.95;42.98;88.41;;
49568;Laerm;35474;51.032;6.998;2023-07-31T01:50:15;64.04;41.75;88.26;;
49568;Laerm;35474;51.032;6.998;2023-07-31T01:52:41;67.02;40.43;95.89;;
49568;Laerm;35474;51.032;6.998;2023-07-31T01:55:08;54.30;41.82;72.56;;
49568;Laerm;35474;51.032;6.998;2023-07-31T01:57:36;64.97;42.22;85.21;;
49568;Laerm;35474;51.032;6.998;2023-07-31T02:00:04;61.91;41.30;85.23;;
49568;Laerm;35474;51.032;6.998;2023-07-31T02:02:31;61.68;41.61;87.66;;
49568;Laerm;35474;51.032;6.998;2023-07-31T02:04:58;63.08;41.94;86.07;;
49568;Laerm;35474;51.032;6.998;2023-07-31T02:07:25;55.55;41.75;77.45;;
49568;Laerm;35474;51.032;6.998;2023-07-31T02:09:51;71.53;41.89;94.65;;
49568;Laerm;35474;51.032;6.998;2023-07-31T02:12:19;73.74;42.47;97.43;;
49568;Laerm;35474;51.032;6.998;2023-07-31T02:14:45;67.48;42.47;88.62;;
49568;Laerm;35474;51.032;6.998;2023-07-31T02:17:12;60.38;42.22;79.50;;
49568;Laerm;35474;51.032;6.998;2023-07-31T02:19:38;69.95;42.03;99.60;;
49568;Laerm;35474;51.032;6.998;2023-07-31T02:22:05;60.21;42.16;76.34;;
49568;Laerm;35474;51.032;6.998;2023-07-31T02:24:32;67.55;42.29;87.09;;
49568;Laerm;35474;51.032;6.998;2023-07-31T02:26:58;66.54;42.22;88.97;;
49568;Laerm;35474;51.032;6.998;2023-07-31T02:29:25;62.27;42.98;84.39;;
49568;Laerm;35474;51.032;6.998;2023-07-31T02:31:52;66.29;42.22;89.26;;
49568;Laerm;35474;51.032;6.998;2023-07-31T02:34:18;67.74;43.04;91.58;;
49568;Laerm;35474;51.032;6.998;2023-07-31T02:36:45;67.48;42.59;92.28;;
49568;Laerm;35474;51.032;6.998;2023-07-31T02:39:11;62.93;43.63;79.47;;
49568;Laerm;35474;51.032;6.998;2023-07-31T02:41:38;59.74;41.82;87.75;;
49568;Laerm;35474;51.032;6.998;2023-07-31T02:44:05;66.33;41.68;91.83;;
49568;Laerm;35474;51.032;6.998;2023-07-31T02:46:31;68.97;42.53;92.44;;
49568;Laerm;35474;51.032;6.998;2023-07-31T02:48:59;59.59;41.53;80.75;;
49568;Laerm;35474;51.032;6.998;2023-07-31T02:51:26;62.15;43.49;87.43;;
49568;Laerm;35474;51.032;6.998;2023-07-31T02:53:52;62.63;42.29;84.09;;
49568;Laerm;35474;51.032;6.998;2023-07-31T02:56:19;64.21;43.09;85.19;;
49568;Laerm;35474;51.032;6.998;2023-07-31T02:58:45;61.00;42.82;86.02;;
49568;Laerm;35474;51.032;6.998;2023-07-31T03:01:12;63.34;42.82;85.94;;
49568;Laerm;35474;51.032;6.998;2023-07-31T03:03:41;64.83;42.29;87.47;;
49568;Laerm;35474;51.032;6.998;2023-07-31T03:06:07;58.56;43.99;76.39;;
49568;Laerm;35474;51.032;6.998;2023-07-31T03:08:34;61.81;43.99;83.53;;
49568;Laerm;35474;51.032;6.998;2023-07-31T03:11:00;66.05;42.47;88.25;;
49568;Laerm;35474;51.032;6.998;2023-07-31T03:13:27;62.50;43.33;91.05;;
49568;Laerm;35474;51.032;6.998;2023-07-31T03:15:54;67.03;43.94;89.17;;
49568;Laerm;35474;51.032;6.998;2023-07-31T03:18:20;72.54;43.99;93.72;;
49568;Laerm;35474;51.032;6.998;2023-07-31T03:20:47;64.09;43.49;89.63;;
49568;Laerm;35474;51.032;6.998;2023-07-31T03:23:13;66.42;43.58;89.64;;
49568;Laerm;35474;51.032;6.998;2023-07-31T03:25:55;61.23;43.55;79.46;;
49568;Laerm;35474;51.032;6.998;2023-07-31T03:28:22;61.25;43.86;75.06;;
49568;Laerm;35474;51.032;6.998;2023-07-31T03:30:49;62.78;42.88;83.65;;
49568;Laerm;35474;51.032;6.998;2023-07-31T03:33:15;63.64;43.68;84.42;;
49568;Laerm;35474;51.032;6.998;2023-07-31T03:35:42;67.97;44.15;94.48;;
49568;Laerm;35474;51.032;6.998;2023-07-31T03:38:09;68.39;43.86;88.66;;
49568;Laerm;35474;51.032;6.998;2023-07-31T03:40:38;64.44;44.73;84.53;;
49568;Laerm;35474;51.032;6.998;2023-07-31T03:43:05;68.37;44.39;90.17;;
49568;Laerm;35474;51.032;6.998;2023-07-31T03:45:32;69.70;44.73;92.78;;
49568;Laerm;35474;51.032;6.998;2023-07-31T03:47:58;73.80;45.30;97.82;;
49568;Laerm;35474;51.032;6.998;2023-07-31T03:50:25;66.24;44.92;86.18;;
49568;Laerm;35474;51.032;6.998;2023-07-31T03:52:52;67.26;46.66;87.55;;
49568;Laerm;35474;51.032;6.998;2023-07-31T03:55:19;65.65;47.06;81.12;;
49568;Laerm;35474;51.032;6.998;2023-07-31T03:57:45;65.78;44.97;87.49;;
49568;Laerm;35474;51.032;6.998;2023-07-31T04:00:12;61.62;43.68;76.86;;
49568;Laerm;35474;51.032;6.998;2023-07-31T04:02:38;62.47;44.51;79.86;;
49568;Laerm;35474;51.032;6.998;2023-07-31T04:05:06;67.85;45.17;88.30;;
49568;Laerm;35474;51.032;6.998;2023-07-31T04:07:32;67.93;44.58;92.47;;
49568;Laerm;35474;51.032;6.998;2023-07-31T04:10:00;69.56;47.72;91.78;;
49568;Laerm;35474;51.032;6.998;2023-07-31T04:12:26;68.15;44.69;90.72;;
49568;Laerm;35474;51.032;6.998;2023-07-31T04:14:53;63.86;44.31;78.31;;
49568;Laerm;35474;51.032;6.998;2023-07-31T04:17:19;64.52;47.20;82.23;;
49568;Laerm;35474;51.032;6.998;2023-07-31T04:19:46;65.55;44.80;89.86;;
49568;Laerm;35474;51.032;6.998;2023-07-31T04:22:12;65.89;44.76;83.38;;
49568;Laerm;35474;51.032;6.998;2023-07-31T04:24:39;66.37;44.76;90.18;;
49568;Laerm;35474;51.032;6.998;2023-07-31T04:27:06;64.05;47.55;79.00;;
49568;Laerm;35474;51.032;6.998;2023-07-31T04:29:32;65.57;46.62;85.88;;
49568;Laerm;35474;51.032;6.998;2023-07-31T04:31:59;65.85;44.89;91.99;;
49568;Laerm;35474;51.032;6.998;2023-07-31T04:34:26;65.55;45.66;88.57;;
49568;Laerm;35474;51.032;6.998;2023-07-31T04:36:52;64.54;46.80;75.85;;
49568;Laerm;35474;51.032;6.998;2023-07-31T04:39:19;65.57;48.48;79.79;;
49568;Laerm;35474;51.032;6.998;2023-07-31T04:41:45;62.64;46.57;71.14;;
49568;Laerm;35474;51.032;6.998;2023-07-31T04:44:12;65.59;48.63;76.63;;
49568;Laerm;35474;51.032;6.998;2023-07-31T04:46:39;65.32;45.86;74.19;;
49568;Laerm;35474;51.032;6.998;2023-07-31T04:49:07;63.83;47.06;72.17;;
49568;Laerm;35474;51.032;6.998;2023-07-31T04:51:33;65.78;47.42;88.44;;
49568;Laerm;35474;51.032;6.998;2023-07-31T04:54:00;63.16;45.86;75.85;;
49568;Laerm;35474;51.032;6.998;2023-07-31T04:56:26;63.45;45.75;81.77;;
49568;Laerm;35474;51.032;6.998;2023-07-31T04:58:53;64.54;50.93;72.09;;
49568;Laerm;35474;51.032;6.998;2023-07-31T05:01:20;63.41;47.65;72.17;;
49568;Laerm;35474;51.032;6.998;2023-07-31T05:03:46;63.38;48.80;71.70;;
49568;Laerm;35474;51.032;6.998;2023-07-31T05:06:13;64.38;45.45;72.08;;
49568;Laerm;35474;51.032;6.998;2023-07-31T05:08:41;65.17;47.18;81.05;;
49568;Laerm;35474;51.032;6.998;2023-07-31T05:11:08;63.98;51.21;71.81;;
49568;Laerm;35474;51.032;6.998;2023-07-31T05:13:34;63.65;47.02;79.73;;
49568;Laerm;35474;51.032;6.998;2023-07-31T05:16:01;63.38;47.32;69.91;;
49568;Laerm;35474;51.032;6.998;2023-07-31T05:18:29;64.76;45.89;73.40;;
49568;Laerm;35474;51.032;6.998;2023-07-31T05:20:55;61.67;45.66;71.60;;
49568;Laerm;35474;51.032;6.998;2023-07-31T05:23:22;64.29;47.24;71.88;;
49568;Laerm;35474;51.032;6.998;2023-07-31T05:25:48;64.49;45.75;75.54;;
49568;Laerm;35474;51.032;6.998;2023-07-31T05:28:15;67.80;49.80;89.16;;
49568;Laerm;35474;51.032;6.998;2023-07-31T05:30:42;64.95;46.38;80.66;;
49568;Laerm;35474;51.032;6.998;2023-07-31T05:33:08;64.58;53.95;76.82;;
49568;Laerm;35474;51.032;6.998;2023-07-31T05:35:39;63.02;48.70;70.92;;
49568;Laerm;35474;51.032;6.998;2023-07-31T05:38:11;64.37;53.35;77.39;;
49568;Laerm;35474;51.032;6.998;2023-07-31T05:40:38;61.58;45.60;71.84;;
49568;Laerm;35474;51.032;6.998;2023-07-31T05:43:05;65.64;45.99;86.96;;
49568;Laerm;35474;51.032;6.998;2023-07-31T05:45:32;64.13;51.85;80.15;;
49568;Laerm;35474;51.032;6.998;2023-07-31T05:48:00;64.20;47.50;80.30;;
49568;Laerm;35474;51.032;6.998;2023-07-31T05:50:26;65.82;49.81;88.77;;
49568;Laerm;35474;51.032;6.998;2023-07-31T05:52:56;64.45;48.00;76.72;;
49568;Laerm;35474;51.032;6.998;2023-07-31T05:55:23;64.51;48.15;74.13;;
49568;Laerm;35474;51.032;6.998;2023-07-31T05:57:50;63.20;47.98;81.51;;
49568;Laerm;35474;51.032;6.998;2023-07-31T06:00:17;62.27;45.23;83.63;;
49568;Laerm;35474;51.032;6.998;2023-07-31T06:02:43;65.36;46.93;80.54;;
49568;Laerm;35474;51.032;6.998;2023-07-31T06:05:10;65.82;50.78;80.62;;
49568;Laerm;35474;51.032;6.998;2023-07-31T06:07:36;65.98;51.67;81.33;;
49568;Laerm;35474;51.032;6.998;2023-07-31T06:10:03;64.54;48.71;76.44;;
49568;Laerm;35474;51.032;6.998;2023-07-31T06:12:32;64.52;52.63;80.63;;
49568;Laerm;35474;51.032;6.998;2023-07-31T06:14:59;66.29;56.27;81.39;;
49568;Laerm;35474;51.032;6.998;2023-07-31T06:17:26;69.80;58.41;84.41;;
49568;Laerm;35474;51.032;6.998;2023-07-31T06:19:53;64.04;50.85;86.63;;
49568;Laerm;35474;51.032;6.998;2023-07-31T06:22:20;65.84;48.15;77.29;;
49568;Laerm;35474;51.032;6.998;2023-07-31T06:24:47;67.00;55.02;79.33;;
49568;Laerm;35474;51.032;6.998;2023-07-31T06:27:13;64.34;49.33;85.38;;
49568;Laerm;35474;51.032;6.998;2023-07-31T06:32:34;66.25;52.31;73.55;;
49568;Laerm;35474;51.032;6.998;2023-07-31T06:35:02;65.23;49.34;74.97;;
49568;Laerm;35474;51.032;6.998;2023-07-31T06:37:29;65.83;52.58;86.23;;
49568;Laerm;35474;51.032;6.998;2023-07-31T06:39:56;66.40;53.32;72.16;;
49568;Laerm;35474;51.032;6.998;2023-07-31T06:42:22;66.98;57.50;87.50;;
49568;Laerm;35474;51.032;6.998;2023-07-31T06:44:49;64.71;51.61;73.58;;
49568;Laerm;35474;51.032;6.998;2023-07-31T06:47:15;69.69;60.51;79.31;;
49568;Laerm;35474;51.032;6.998;2023-07-31T06:49:42;66.80;53.26;79.24;;
49568;Laerm;35474;51.032;6.998;2023-07-31T06:52:09;68.70;56.02;77.14;;
49568;Laerm;35474;51.032;6.998;2023-07-31T06:54:37;66.66;54.05;73.48;;
49568;Laerm;35474;51.032;6.998;2023-07-31T06:57:04;66.17;51.22;79.73;;
49568;Laerm;35474;51.032;6.998;2023-07-31T06:59:31;65.37;51.64;74.82;;
49568;Laerm;35474;51.032;6.998;2023-07-31T07:01:57;65.72;49.83;72.93;;
49568;Laerm;35474;51.032;6.998;2023-07-31T07:04:24;64.61;50.14;81.55;;
49568;Laerm;35474;51.032;6.998;2023-07-31T07:06:51;67.71;47.10;83.26;;
49568;Laerm;35474;51.032;6.998;2023-07-31T07:09:17;65.46;46.95;79.33;;
49568;Laerm;35474;51.032;6.998;2023-07-31T07:11:44;67.01;49.60;88.96;;
49568;Laerm;35474;51.032;6.998;2023-07-31T07:14:11;66.24;47.91;74.54;;
49568;Laerm;35474;51.032;6.998;2023-07-31T07:16:37;64.43;51.44;78.59;;
49568;Laerm;35474;51.032;6.998;2023-07-31T07:19:07;65.06;46.91;73.65;;
49568;Laerm;35474;51.032;6.998;2023-07-31T07:21:34;65.82;49.87;80.59;;
49568;Laerm;35474;51.032;6.998;2023-07-31T07:24:01;64.14;49.11;71.59;;
49568;Laerm;35474;51.032;6.998;2023-07-31T07:26:27;65.70;50.65;75.68;;
49568;Laerm;35474;51.032;6.998;2023-07-31T07:28:54;66.08;54.42;73.44;;
49568;Laerm;35474;51.032;6.998;2023-07-31T07:31:21;67.79;53.80;85.27;;
49568;Laerm;35474;51.032;6.998;2023-07-31T07:33:48;66.32;48.96;76.75;;
49568;Laerm;35474;51.032;6.998;2023-07-31T07:36:14;65.33;50.28;78.98;;
49568;Laerm;35474;51.032;6.998;2023-07-31T07:38:41;65.97;52.06;84.86;;
49568;Laerm;35474;51.032;6.998;2023-07-31T07:41:07;68.17;56.46;81.10;;
49568;Laerm;35474;51.032;6.998;2023-07-31T07:43:34;68.45;57.93;81.77;;
49568;Laerm;35474;51.032;6.998;2023-07-31T07:46:01;70.53;59.27;79.86;;
49568;Laerm;35474;51.032;6.998;2023-07-31T07:48:27;69.15;50.79;75.09;;
49568;Laerm;35474;51.032;6.998;2023-07-31T07:50:54;67.72;52.60;75.48;;
49568;Laerm;35474;51.032;6.998;2023-07-31T07:53:21;68.86;53.06;76.42;;
49568;Laerm;35474;51.032;6.998;2023-07-31T07:55:47;65.71;56.83;71.94;;
49568;Laerm;35474;51.032;6.998;2023-07-31T07:58:14;69.16;61.48;75.01;;
49568;Laerm;35474;51.032;6.998;2023-07-31T08:00:40;67.97;52.86;76.79;;
49568;Laerm;35474;51.032;6.998;2023-07-31T08:03:07;65.14;50.14;71.84;;
49568;Laerm;35474;51.032;6.998;2023-07-31T08:05:34;69.13;53.57;78.84;;
49568;Laerm;35474;51.032;6.998;2023-07-31T08:08:01;68.45;49.55;76.19;;
49568;Laerm;35474;51.032;6.998;2023-07-31T08:10:27;67.68;50.46;82.53;;
49568;Laerm;35474;51.032;6.998;2023-07-31T08:12:54;66.23;53.24;74.82;;
49568;Laerm;35474;51.032;6.998;2023-07-31T08:15:20;72.13;54.41;93.21;;
49568;Laerm;35474;51.032;6.998;2023-07-31T08:17:47;72.03;53.26;92.19;;
49568;Laerm;35474;51.032;6.998;2023-07-31T08:20:14;67.97;49.59;78.34;;
49568;Laerm;35474;51.032;6.998;2023-07-31T08:22:41;70.38;60.40;85.85;;
49568;Laerm;35474;51.032;6.998;2023-07-31T08:25:08;68.48;50.77;87.06;;
49568;Laerm;35474;51.032;6.998;2023-07-31T08:27:34;67.82;55.04;88.99;;
49568;Laerm;35474;51.032;6.998;2023-07-31T08:30:01;66.73;56.27;76.78;;
49568;Laerm;35474;51.032;6.998;2023-07-31T08:32:28;66.71;52.64;73.65;;
49568;Laerm;35474;51.032;6.998;2023-07-31T08:34:54;68.07;53.13;86.18;;
49568;Laerm;35474;51.032;6.998;2023-07-31T08:37:21;67.57;48.78;74.70;;
49568;Laerm;35474;51.032;6.998;2023-07-31T08:39:48;67.48;57.30;77.60;;
49568;Laerm;35474;51.032;6.998;2023-07-31T08:42:14;69.07;61.78;77.16;;
49568;Laerm;35474;51.032;6.998;2023-07-31T08:44:41;68.19;52.67;75.94;;
49568;Laerm;35474;51.032;6.998;2023-07-31T08:47:08;68.78;60.32;75.41;;
49568;Laerm;35474;51.032;6.998;2023-07-31T08:49:37;67.37;55.64;80.17;;
49568;Laerm;35474;51.032;6.998;2023-07-31T08:52:05;67.29;58.39;78.03;;
49568;Laerm;35474;51.032;6.998;2023-07-31T08:54:32;68.22;61.01;86.09;;
49568;Laerm;35474;51.032;6.998;2023-07-31T08:57:00;69.05;58.28;83.23;;
49568;Laerm;35474;51.032;6.998;2023-07-31T08:59:31;69.21;58.15;74.48;;
49568;Laerm;35474;51.032;6.998;2023-07-31T09:02:00;68.72;57.88;76.14;;
49568;Laerm;35474;51.032;6.998;2023-07-31T09:04:30;69.21;57.69;74.18;;
49568;Laerm;35474;51.032;6.998;2023-07-31T09:07:00;68.82;57.78;74.59;;
49568;Laerm;35474;51.032;6.998;2023-07-31T09:09:27;68.98;50.26;73.63;;
49568;Laerm;35474;51.032;6.998;2023-07-31T09:11:54;69.76;63.40;75.78;;
49568;Laerm;35474;51.032;6.998;2023-07-31T09:14:22;70.18;59.82;84.91;;
49568;Laerm;35474;51.032;6.998;2023-07-31T09:16:58;66.71;49.53;73.93;;
49568;Laerm;35474;51.032;6.998;2023-07-31T09:19:27;67.70;61.02;80.98;;
49568;Laerm;35474;51.032;6.998;2023-07-31T09:21:54;68.05;54.36;74.85;;
49568;Laerm;35474;51.032;6.998;2023-07-31T09:24:32;68.37;54.31;89.20;;
49568;Laerm;35474;51.032;6.998;2023-07-31T09:27:00;67.71;50.00;84.69;;
49568;Laerm;35474;51.032;6.998;2023-07-31T09:29:28;66.56;50.08;85.60;;
49568;Laerm;35474;51.032;6.998;2023-07-31T09:31:56;65.81;47.83;74.47;;
49568;Laerm;35474;51.032;6.998;2023-07-31T09:34:30;66.18;52.04;80.69;;
49568;Laerm;35474;51.032;6.998;2023-07-31T09:37:04;66.48;52.33;72.45;;
49568;Laerm;35474;51.032;6.998;2023-07-31T09:39:31;67.15;51.24;83.60;;
49568;Laerm;35474;51.032;6.998;2023-07-31T09:41:57;67.67;55.97;92.38;;
49568;Laerm;35474;51.032;6.998;2023-07-31T09:44:40;67.26;58.32;83.43;;
49568;Laerm;35474;51.032;6.998;2023-07-31T09:47:21;67.56;55.56;82.29;;
49568;Laerm;35474;51.032;6.998;2023-07-31T09:49:51;66.08;53.99;76.96;;
49568;Laerm;35474;51.032;6.998;2023-07-31T09:52:17;67.45;45.72;73.98;;
49568;Laerm;35474;51.032;6.998;2023-07-31T09:54:44;65.28;49.67;72.44;;
49568;Laerm;35474;51.032;6.998;2023-07-31T09:57:11;67.37;51.87;73.08;;
49568;Laerm;35474;51.032;6.998;2023-07-31T09:59:38;65.22;49.10;72.40;;
49568;Laerm;35474;51.032;6.998;2023-07-31T10:02:09;67.29;58.50;76.15;;
49568;Laerm;35474;51.032;6.998;2023-07-31T10:04:40;63.73;47.63;70.55;;
49568;Laerm;35474;51.032;6.998;2023-07-31T10:07:12;65.84;52.79;78.86;;
49568;Laerm;35474;51.032;6.998;2023-07-31T10:09:40;64.30;47.70;74.05;;
49568;Laerm;35474;51.032;6.998;2023-07-31T10:12:09;65.90;50.64;75.76;;
49568;Laerm;35474;51.032;6.998;2023-07-31T10:14:38;66.81;58.16;77.45;;
49568;Laerm;35474;51.032;6.998;2023-07-31T10:17:06;66.01;57.78;86.62;;
49568;Laerm;35474;51.032;6.998;2023-07-31T10:19:34;64.77;54.25;70.90;;
49568;Laerm;35474;51.032;6.998;2023-07-31T10:22:03;65.08;49.34;83.55;;
49568;Laerm;35474;51.032;6.998;2023-07-31T10:24:31;64.68;50.08;77.93;;
49568;Laerm;35474;51.032;6.998;2023-07-31T10:27:01;66.00;55.53;73.38;;
49568;Laerm;35474;51.032;6.998;2023-07-31T10:29:29;66.62;55.15;77.77;;
49568;Laerm;35474;51.032;6.998;2023-07-31T10:31:58;66.60;56.53;85.86;;
49568;Laerm;35474;51.032;6.998;2023-07-31T10:34:26;66.15;51.72;73.52;;
49568;Laerm;35474;51.032;6.998;2023-07-31T10:37:28;64.95;52.19;75.65;;
49568;Laerm;35474;51.032;6.998;2023-07-31T10:39:56;65.78;45.30;81.69;;
49568;Laerm;35474;51.032;6.998;2023-07-31T10:42:37;64.85;53.45;71.92;;
49568;Laerm;35474;51.032;6.998;2023-07-31T10:45:08;67.02;52.67;84.39;;
49568;Laerm;35474;51.032;6.998;2023-07-31T10:47:44;67.34;50.39;85.81;;
49568;Laerm;35474;51.032;6.998;2023-07-31T10:50:22;69.93;55.65;89.20;;
49568;Laerm;35474;51.032;6.998;2023-07-31T10:52:51;68.65;47.96;86.45;;
49568;Laerm;35474;51.032;6.998;2023-07-31T10:55:31;67.17;49.46;86.39;;
49568;Laerm;35474;51.032;6.998;2023-07-31T10:58:07;65.83;48.18;76.56;;
49568;Laerm;35474;51.032;6.998;2023-07-31T11:00:37;64.58;50.43;76.84;;
49568;Laerm;35474;51.032;6.998;2023-07-31T11:03:05;64.98;50.08;75.68;;
49568;Laerm;35474;51.032;6.998;2023-07-31T11:05:47;65.81;48.76;86.06;;
49568;Laerm;35474;51.032;6.998;2023-07-31T11:08:21;71.58;53.26;90.08;;
49568;Laerm;35474;51.032;6.998;2023-07-31T11:10:51;74.20;52.13;98.14;;
49568;Laerm;35474;51.032;6.998;2023-07-31T11:13:18;70.66;49.94;92.73;;
49568;Laerm;35474;51.032;6.998;2023-07-31T11:15:44;72.32;51.08;95.23;;
49568;Laerm;35474;51.032;6.998;2023-07-31T11:18:11;75.22;53.02;99.18;;
49568;Laerm;35474;51.032;6.998;2023-07-31T11:20:38;71.51;51.89;91.40;;
49568;Laerm;35474;51.032;6.998;2023-07-31T11:23:08;72.82;51.53;97.91;;
49568;Laerm;35474;51.032;6.998;2023-07-31T11:25:36;74.21;49.02;95.74;;
49568;Laerm;35474;51.032;6.998;2023-07-31T11:28:04;73.33;50.44;95.70;;
49568;Laerm;35474;51.032;6.998;2023-07-31T11:30:31;69.63;53.69;90.86;;
49568;Laerm;35474;51.032;6.998;2023-07-31T11:32:59;66.43;50.44;78.23;;
49568;Laerm;35474;51.032;6.998;2023-07-31T11:35:25;66.43;54.45;79.31;;
49568;Laerm;35474;51.032;6.998;2023-07-31T11:37:52;66.73;49.25;83.30;;
49568;Laerm;35474;51.032;6.998;2023-07-31T11:40:19;66.21;55.23;79.32;;
49568;Laerm;35474;51.032;6.998;2023-07-31T11:42:51;68.46;52.90;90.67;;
49568;Laerm;35474;51.032;6.998;2023-07-31T11:45:17;66.74;57.60;83.76;;
49568;Laerm;35474;51.032;6.998;2023-07-31T11:47:45;66.87;48.07;90.35;;
49568;Laerm;35474;51.032;6.998;2023-07-31T11:50:12;70.14;56.22;92.28;;
49568;Laerm;35474;51.032;6.998;2023-07-31T11:52:43;74.49;49.04;94.68;;
49568;Laerm;35474;51.032;6.998;2023-07-31T11:55:12;71.39;56.59;94.02;;
49568;Laerm;35474;51.032;6.998;2023-07-31T11:57:40;68.11;56.00;89.12;;
49568;Laerm;35474;51.032;6.998;2023-07-31T12:00:08;70.32;55.74;90.99;;
49568;Laerm;35474;51.032;6.998;2023-07-31T12:02:37;74.47;53.15;94.70;;
49568;Laerm;35474;51.032;6.998;2023-07-31T12:05:10;66.83;51.94;84.17;;
49568;Laerm;35474;51.032;6.998;2023-07-31T12:07:54;74.26;52.18;94.63;;
49568;Laerm;35474;51.032;6.998;2023-07-31T12:10:31;66.19;54.05;83.91;;
49568;Laerm;35474;51.032;6.998;2023-07-31T12:15:37;69.38;53.91;85.77;;
49568;Laerm;35474;51.032;6.998;2023-07-31T12:18:05;71.06;50.98;89.69;;
49568;Laerm;35474;51.032;6.998;2023-07-31T12:20:34;80.58;57.00;101.17;;
49568;Laerm;35474;51.032;6.998;2023-07-31T12:23:01;81.10;50.91;103.06;;
49568;Laerm;35474;51.032;6.998;2023-07-31T12:25:30;78.09;50.65;99.79;;
49568;Laerm;35474;51.032;6.998;2023-07-31T12:27:57;69.81;54.31;86.80;;
49568;Laerm;35474;51.032;6.998;2023-07-31T12:30:32;68.85;57.37;89.91;;
49568;Laerm;35474;51.032;6.998;2023-07-31T12:33:13;73.38;52.45;93.10;;
49568;Laerm;35474;51.032;6.998;2023-07-31T12:35:45;76.53;50.19;99.73;;
49568;Laerm;35474;51.032;6.998;2023-07-31T12:38:13;74.12;52.81;92.22;;
49568;Laerm;35474;51.032;6.998;2023-07-31T12:40:41;78.52;49.46;97.33;;
49568;Laerm;35474;51.032;6.998;2023-07-31T12:43:08;78.99;55.47;103.46;;
49568;Laerm;35474;51.032;6.998;2023-07-31T12:45:35;71.76;53.20;91.10;;
49568;Laerm;35474;51.032;6.998;2023-07-31T12:48:02;69.41;51.89;85.81;;
49568;Laerm;35474;51.032;6.998;2023-07-31T12:50:28;75.91;54.71;98.37;;
49568;Laerm;35474;51.032;6.998;2023-07-31T12:52:56;74.13;54.40;99.68;;
49568;Laerm;35474;51.032;6.998;2023-07-31T12:55:23;70.77;55.89;89.16;;
49568;Laerm;35474;51.032;6.998;2023-07-31T12:57:50;78.40;51.04;100.89;;
49568;Laerm;35474;51.032;6.998;2023-07-31T13:00:17;75.45;55.74;98.12;;
49568;Laerm;35474;51.032;6.998;2023-07-31T13:02:44;65.84;50.65;81.24;;
49568;Laerm;35474;51.032;6.998;2023-07-31T13:05:11;73.07;54.33;91.72;;
49568;Laerm;35474;51.032;6.998;2023-07-31T13:07:40;77.42;52.81;100.13;;
49568;Laerm;35474;51.032;6.998;2023-07-31T13:10:07;68.16;52.90;86.34;;
49568;Laerm;35474;51.032;6.998;2023-07-31T13:12:34;66.64;54.04;85.61;;
49568;Laerm;35474;51.032;6.998;2023-07-31T13:15:00;66.48;53.80;79.89;;
49568;Laerm;35474;51.032;6.998;2023-07-31T13:17:27;80.76;57.24;104.12;;
49568;Laerm;35474;51.032;6.998;2023-07-31T13:19:54;73.68;56.93;93.59;;
49568;Laerm;35474;51.032;6.998;2023-07-31T13:22:20;80.64;48.32;100.98;;
49568;Laerm;35474;51.032;6.998;2023-07-31T13:24:47;70.65;50.12;89.12;;
49568;Laerm;35474;51.032;6.998;2023-07-31T13:27:14;69.92;48.48;95.03;;
49568;Laerm;35474;51.032;6.998;2023-07-31T13:29:45;68.10;52.48;86.17;;
49568;Laerm;35474;51.032;6.998;2023-07-31T13:32:12;76.50;54.59;97.07;;
49568;Laerm;35474;51.032;6.998;2023-07-31T13:34:38;74.08;49.06;93.99;;
49568;Laerm;35474;51.032;6.998;2023-07-31T13:37:05;72.37;48.04;92.84;;
49568;Laerm;35474;51.032;6.998;2023-07-31T13:39:35;69.78;48.23;89.16;;
49568;Laerm;35474;51.032;6.998;2023-07-31T13:42:05;68.06;55.00;86.65;;
49568;Laerm;35474;51.032;6.998;2023-07-31T13:44:34;65.45;48.21;79.37;;
49568;Laerm;35474;51.032;6.998;2023-07-31T13:47:01;69.96;56.05;87.84;;
49568;Laerm;35474;51.032;6.998;2023-07-31T13:49:29;67.72;48.08;88.14;;
49568;Laerm;35474;51.032;6.998;2023-07-31T13:51:57;70.50;49.44;88.77;;
49568;Laerm;35474;51.032;6.998;2023-07-31T13:54:24;66.91;52.81;78.01;;
49568;Laerm;35474;51.032;6.998;2023-07-31T13:56:56;67.85;50.35;78.18;;
49568;Laerm;35474;51.032;6.998;2023-07-31T13:59:23;66.88;54.21;87.36;;
49568;Laerm;35474;51.032;6.998;2023-07-31T14:01:50;67.06;57.39;77.74;;